sensor_id;sensor_type;location;lat;lon;timestamp;P1;durP1;ratioP1;P2;durP2;ratioP2
3369;SDS011;42042;51.948;7.628;2023-02-04T00:01:31;27.83;;;5.97;;
3369;SDS011;42042;51.948;7.628;2023-02-04T00:03:59;31.55;;;5.38;;
3369;SDS011;42042;51.948;7.628;2023-02-04T00:06:26;31.35;;;7.18;;
3369;SDS011;42042;51.948;7.628;2023-02-04T00:08:53;29.33;;;6.72;;
3369;SDS011;42042;51.948;7.628;2023-02-04T00:11:21;23.60;;;5.85;;
3369;SDS011;42042;51.948;7.628;2023-02-04T00:13:49;24.25;;;6.95;;
3369;SDS011;42042;51.948;7.628;2023-02-04T00:16:16;27.13;;;6.95;;
3369;SDS011;42042;51.948;7.628;2023-02-04T00:18:43;27.92;;;6.45;;
3369;SDS011;42042;51.948;7.628;2023-02-04T00:21:10;34.70;;;6.45;;
3369;SDS011;42042;51.948;7.628;2023-02-04T00:23:37;36.10;;;7.57;;
3369;SDS011;42042;51.948;7.628;2023-02-04T00:26:05;28.92;;;5.68;;
3369;SDS011;42042;51.948;7.628;2023-02-04T00:28:33;44.28;;;7.22;;
3369;SDS011;42042;51.948;7.628;2023-02-04T00:31:00;26.35;;;5.72;;
3369;SDS011;42042;51.948;7.628;2023-02-04T00:33:28;34.15;;;6.53;;
3369;SDS011;42042;51.948;7.628;2023-02-04T00:35:55;23.58;;;4.95;;
3369;SDS011;42042;51.948;7.628;2023-02-04T00:38:22;22.02;;;5.65;;
3369;SDS011;42042;51.948;7.628;2023-02-04T00:40:49;31.65;;;7.38;;
3369;SDS011;42042;51.948;7.628;2023-02-04T00:43:16;26.58;;;5.97;;
3369;SDS011;42042;51.948;7.628;2023-02-04T00:45:45;21.52;;;5.28;;
3369;SDS011;42042;51.948;7.628;2023-02-04T00:48:12;35.35;;;6.38;;
3369;SDS011;42042;51.948;7.628;2023-02-04T00:50:39;26.52;;;6.47;;
3369;SDS011;42042;51.948;7.628;2023-02-04T00:53:06;31.73;;;5.88;;
3369;SDS011;42042;51.948;7.628;2023-02-04T00:55:34;31.77;;;6.13;;
3369;SDS011;42042;51.948;7.628;2023-02-04T00:58:01;29.73;;;6.93;;
3369;SDS011;42042;51.948;7.628;2023-02-04T01:00:28;24.70;;;6.38;;
3369;SDS011;42042;51.948;7.628;2023-02-04T01:02:56;20.65;;;6.85;;
3369;SDS011;42042;51.948;7.628;2023-02-04T01:05:24;26.00;;;5.97;;
3369;SDS011;42042;51.948;7.628;2023-02-04T01:07:51;45.45;;;8.15;;
3369;SDS011;42042;51.948;7.628;2023-02-04T01:10:18;30.60;;;5.72;;
3369;SDS011;42042;51.948;7.628;2023-02-04T01:12:45;22.52;;;6.70;;
3369;SDS011;42042;51.948;7.628;2023-02-04T01:15:12;38.88;;;8.07;;
3369;SDS011;42042;51.948;7.628;2023-02-04T01:17:39;31.58;;;8.10;;
3369;SDS011;42042;51.948;7.628;2023-02-04T01:20:09;31.55;;;5.85;;
3369;SDS011;42042;51.948;7.628;2023-02-04T01:22:36;28.70;;;7.82;;
3369;SDS011;42042;51.948;7.628;2023-02-04T01:25:04;30.35;;;6.72;;
3369;SDS011;42042;51.948;7.628;2023-02-04T01:27:31;29.15;;;6.30;;
3369;SDS011;42042;51.948;7.628;2023-02-04T01:29:58;24.20;;;6.25;;
3369;SDS011;42042;51.948;7.628;2023-02-04T01:32:25;28.23;;;6.65;;
3369;SDS011;42042;51.948;7.628;2023-02-04T01:34:52;15.77;;;5.15;;
3369;SDS011;42042;51.948;7.628;2023-02-04T01:37:21;31.30;;;7.35;;
3369;SDS011;42042;51.948;7.628;2023-02-04T01:39:48;29.13;;;5.30;;
3369;SDS011;42042;51.948;7.628;2023-02-04T01:42:15;28.30;;;6.22;;
3369;SDS011;42042;51.948;7.628;2023-02-04T01:44:42;43.42;;;7.40;;
3369;SDS011;42042;51.948;7.628;2023-02-04T01:47:09;40.20;;;6.40;;
3369;SDS011;42042;51.948;7.628;2023-02-04T01:49:37;23.15;;;4.65;;
3369;SDS011;42042;51.948;7.628;2023-02-04T01:52:04;27.52;;;6.60;;
3369;SDS011;42042;51.948;7.628;2023-02-04T01:54:33;31.73;;;5.18;;
3369;SDS011;42042;51.948;7.628;2023-02-04T01:57:00;28.55;;;6.15;;
3369;SDS011;42042;51.948;7.628;2023-02-04T01:59:27;29.83;;;6.10;;
3369;SDS011;42042;51.948;7.628;2023-02-04T02:01:55;48.75;;;5.90;;
3369;SDS011;42042;51.948;7.628;2023-02-04T02:04:24;27.67;;;6.47;;
3369;SDS011;42042;51.948;7.628;2023-02-04T02:06:54;26.98;;;4.90;;
3369;SDS011;42042;51.948;7.628;2023-02-04T02:09:22;27.45;;;7.32;;
3369;SDS011;42042;51.948;7.628;2023-02-04T02:11:51;17.50;;;6.10;;
3369;SDS011;42042;51.948;7.628;2023-02-04T02:14:18;31.48;;;6.75;;
3369;SDS011;42042;51.948;7.628;2023-02-04T02:16:46;32.45;;;6.30;;
3369;SDS011;42042;51.948;7.628;2023-02-04T02:19:14;35.25;;;7.15;;
3369;SDS011;42042;51.948;7.628;2023-02-04T02:21:43;18.65;;;5.20;;
3369;SDS011;42042;51.948;7.628;2023-02-04T02:24:25;27.38;;;6.53;;
3369;SDS011;42042;51.948;7.628;2023-02-04T02:26:52;23.55;;;6.65;;
3369;SDS011;42042;51.948;7.628;2023-02-04T02:29:20;19.20;;;5.05;;
3369;SDS011;42042;51.948;7.628;2023-02-04T02:31:48;39.53;;;6.60;;
3369;SDS011;42042;51.948;7.628;2023-02-04T02:34:15;31.20;;;4.50;;
3369;SDS011;42042;51.948;7.628;2023-02-04T02:36:42;26.15;;;6.88;;
3369;SDS011;42042;51.948;7.628;2023-02-04T02:39:10;36.40;;;5.70;;
3369;SDS011;42042;51.948;7.628;2023-02-04T02:41:38;32.47;;;5.70;;
3369;SDS011;42042;51.948;7.628;2023-02-04T02:44:06;31.60;;;6.47;;
3369;SDS011;42042;51.948;7.628;2023-02-04T02:46:33;22.40;;;5.25;;
3369;SDS011;42042;51.948;7.628;2023-02-04T02:49:00;35.30;;;6.75;;
3369;SDS011;42042;51.948;7.628;2023-02-04T02:51:27;32.08;;;6.65;;
3369;SDS011;42042;51.948;7.628;2023-02-04T02:53:55;31.70;;;5.78;;
3369;SDS011;42042;51.948;7.628;2023-02-04T02:56:22;51.38;;;8.75;;
3369;SDS011;42042;51.948;7.628;2023-02-04T02:58:51;43.15;;;7.18;;
3369;SDS011;42042;51.948;7.628;2023-02-04T03:01:18;29.95;;;7.65;;
3369;SDS011;42042;51.948;7.628;2023-02-04T03:03:46;30.30;;;6.50;;
3369;SDS011;42042;51.948;7.628;2023-02-04T03:06:15;40.97;;;6.53;;
3369;SDS011;42042;51.948;7.628;2023-02-04T03:08:44;37.53;;;6.38;;
3369;SDS011;42042;51.948;7.628;2023-02-04T03:11:12;28.67;;;5.88;;
3369;SDS011;42042;51.948;7.628;2023-02-04T03:13:39;28.38;;;5.80;;
3369;SDS011;42042;51.948;7.628;2023-02-04T03:24:35;19.70;;;5.05;;
3369;SDS011;42042;51.948;7.628;2023-02-04T03:27:02;24.40;;;5.35;;
3369;SDS011;42042;51.948;7.628;2023-02-04T03:29:30;29.38;;;5.72;;
3369;SDS011;42042;51.948;7.628;2023-02-04T03:31:57;34.08;;;7.00;;
3369;SDS011;42042;51.948;7.628;2023-02-04T03:34:24;18.55;;;5.45;;
3369;SDS011;42042;51.948;7.628;2023-02-04T03:36:52;39.22;;;6.45;;
3369;SDS011;42042;51.948;7.628;2023-02-04T03:39:19;24.45;;;5.43;;
3369;SDS011;42042;51.948;7.628;2023-02-04T03:41:47;28.75;;;6.45;;
3369;SDS011;42042;51.948;7.628;2023-02-04T03:44:14;22.30;;;4.88;;
3369;SDS011;42042;51.948;7.628;2023-02-04T03:46:42;30.85;;;7.03;;
3369;SDS011;42042;51.948;7.628;2023-02-04T03:49:09;25.30;;;5.55;;
3369;SDS011;42042;51.948;7.628;2023-02-04T03:51:37;31.42;;;6.25;;
3369;SDS011;42042;51.948;7.628;2023-02-04T03:54:04;24.05;;;6.20;;
3369;SDS011;42042;51.948;7.628;2023-02-04T03:56:31;34.92;;;6.10;;
3369;SDS011;42042;51.948;7.628;2023-02-04T03:58:59;34.08;;;5.97;;
3369;SDS011;42042;51.948;7.628;2023-02-04T04:01:27;35.60;;;7.38;;
3369;SDS011;42042;51.948;7.628;2023-02-04T04:03:54;23.30;;;5.43;;
3369;SDS011;42042;51.948;7.628;2023-02-04T04:06:21;32.28;;;6.85;;
3369;SDS011;42042;51.948;7.628;2023-02-04T04:08:48;21.85;;;4.93;;
3369;SDS011;42042;51.948;7.628;2023-02-04T04:11:16;27.17;;;6.72;;
3369;SDS011;42042;51.948;7.628;2023-02-04T04:13:43;31.13;;;6.78;;
3369;SDS011;42042;51.948;7.628;2023-02-04T04:16:11;29.55;;;5.72;;
3369;SDS011;42042;51.948;7.628;2023-02-04T04:18:39;28.15;;;5.18;;
3369;SDS011;42042;51.948;7.628;2023-02-04T04:21:06;34.70;;;5.78;;
3369;SDS011;42042;51.948;7.628;2023-02-04T04:23:33;32.47;;;5.63;;
3369;SDS011;42042;51.948;7.628;2023-02-04T04:26:00;24.15;;;4.75;;
3369;SDS011;42042;51.948;7.628;2023-02-04T04:28:27;42.90;;;6.07;;
3369;SDS011;42042;51.948;7.628;2023-02-04T04:30:55;32.70;;;5.65;;
3369;SDS011;42042;51.948;7.628;2023-02-04T04:33:23;32.80;;;6.43;;
3369;SDS011;42042;51.948;7.628;2023-02-04T04:35:50;18.15;;;5.32;;
3369;SDS011;42042;51.948;7.628;2023-02-04T04:38:17;34.15;;;5.57;;
3369;SDS011;42042;51.948;7.628;2023-02-04T04:40:45;19.52;;;5.13;;
3369;SDS011;42042;51.948;7.628;2023-02-04T04:43:12;30.30;;;5.35;;
3369;SDS011;42042;51.948;7.628;2023-02-04T04:45:39;29.52;;;5.38;;
3369;SDS011;42042;51.948;7.628;2023-02-04T04:48:06;39.97;;;6.72;;
3369;SDS011;42042;51.948;7.628;2023-02-04T04:50:35;46.00;;;7.35;;
3369;SDS011;42042;51.948;7.628;2023-02-04T04:53:02;33.00;;;7.25;;
3369;SDS011;42042;51.948;7.628;2023-02-04T04:55:29;21.48;;;5.43;;
3369;SDS011;42042;51.948;7.628;2023-02-04T04:57:56;31.52;;;5.53;;
3369;SDS011;42042;51.948;7.628;2023-02-04T05:00:24;26.60;;;7.07;;
3369;SDS011;42042;51.948;7.628;2023-02-04T05:02:51;38.75;;;7.60;;
3369;SDS011;42042;51.948;7.628;2023-02-04T05:05:18;27.83;;;5.40;;
3369;SDS011;42042;51.948;7.628;2023-02-04T05:07:46;23.92;;;5.80;;
3369;SDS011;42042;51.948;7.628;2023-02-04T05:10:14;30.55;;;6.95;;
3369;SDS011;42042;51.948;7.628;2023-02-04T05:12:41;31.13;;;5.57;;
3369;SDS011;42042;51.948;7.628;2023-02-04T05:15:08;38.58;;;6.45;;
3369;SDS011;42042;51.948;7.628;2023-02-04T05:17:36;31.50;;;5.45;;
3369;SDS011;42042;51.948;7.628;2023-02-04T05:20:03;25.33;;;5.95;;
3369;SDS011;42042;51.948;7.628;2023-02-04T05:22:30;35.50;;;7.95;;
3369;SDS011;42042;51.948;7.628;2023-02-04T05:24:59;28.95;;;6.03;;
3369;SDS011;42042;51.948;7.628;2023-02-04T05:27:26;31.55;;;7.85;;
3369;SDS011;42042;51.948;7.628;2023-02-04T05:29:53;31.45;;;7.22;;
3369;SDS011;42042;51.948;7.628;2023-02-04T05:32:20;25.95;;;6.97;;
3369;SDS011;42042;51.948;7.628;2023-02-04T05:34:47;27.63;;;6.47;;
3369;SDS011;42042;51.948;7.628;2023-02-04T05:37:14;37.70;;;6.40;;
3369;SDS011;42042;51.948;7.628;2023-02-04T05:39:45;24.05;;;6.03;;
3369;SDS011;42042;51.948;7.628;2023-02-04T05:42:13;29.08;;;6.00;;
3369;SDS011;42042;51.948;7.628;2023-02-04T05:44:40;29.17;;;5.80;;
3369;SDS011;42042;51.948;7.628;2023-02-04T05:47:08;23.52;;;6.05;;
3369;SDS011;42042;51.948;7.628;2023-02-04T05:49:35;27.80;;;6.57;;
3369;SDS011;42042;51.948;7.628;2023-02-04T05:52:02;23.80;;;5.60;;
3369;SDS011;42042;51.948;7.628;2023-02-04T05:54:29;35.63;;;7.63;;
3369;SDS011;42042;51.948;7.628;2023-02-04T05:56:57;26.05;;;6.28;;
3369;SDS011;42042;51.948;7.628;2023-02-04T05:59:25;38.55;;;7.43;;
3369;SDS011;42042;51.948;7.628;2023-02-04T06:01:52;38.88;;;7.70;;
3369;SDS011;42042;51.948;7.628;2023-02-04T06:04:19;40.63;;;7.63;;
3369;SDS011;42042;51.948;7.628;2023-02-04T06:06:46;30.85;;;5.50;;
3369;SDS011;42042;51.948;7.628;2023-02-04T06:09:14;35.83;;;6.75;;
3369;SDS011;42042;51.948;7.628;2023-02-04T06:11:41;34.70;;;6.55;;
3369;SDS011;42042;51.948;7.628;2023-02-04T06:14:08;28.20;;;8.98;;
3369;SDS011;42042;51.948;7.628;2023-02-04T06:16:37;34.10;;;6.60;;
3369;SDS011;42042;51.948;7.628;2023-02-04T06:19:04;30.33;;;6.93;;
3369;SDS011;42042;51.948;7.628;2023-02-04T06:21:31;35.20;;;7.93;;
3369;SDS011;42042;51.948;7.628;2023-02-04T06:23:58;44.97;;;6.90;;
3369;SDS011;42042;51.948;7.628;2023-02-04T06:26:25;37.47;;;7.20;;
3369;SDS011;42042;51.948;7.628;2023-02-04T06:28:53;25.20;;;6.60;;
3369;SDS011;42042;51.948;7.628;2023-02-04T06:31:20;38.42;;;8.10;;
3369;SDS011;42042;51.948;7.628;2023-02-04T06:33:48;49.90;;;8.00;;
3369;SDS011;42042;51.948;7.628;2023-02-04T06:36:15;36.50;;;7.60;;
3369;SDS011;42042;51.948;7.628;2023-02-04T06:38:43;40.70;;;6.88;;
3369;SDS011;42042;51.948;7.628;2023-02-04T06:41:10;34.67;;;6.90;;
3369;SDS011;42042;51.948;7.628;2023-02-04T06:43:37;25.40;;;8.45;;
3369;SDS011;42042;51.948;7.628;2023-02-04T06:46:04;39.17;;;6.30;;
3369;SDS011;42042;51.948;7.628;2023-02-04T06:48:32;32.25;;;7.80;;
3369;SDS011;42042;51.948;7.628;2023-02-04T06:51:00;29.75;;;6.10;;
3369;SDS011;42042;51.948;7.628;2023-02-04T06:53:27;43.83;;;7.45;;
3369;SDS011;42042;51.948;7.628;2023-02-04T06:55:54;25.65;;;6.22;;
3369;SDS011;42042;51.948;7.628;2023-02-04T06:58:22;30.40;;;6.60;;
3369;SDS011;42042;51.948;7.628;2023-02-04T07:00:50;29.10;;;8.05;;
3369;SDS011;42042;51.948;7.628;2023-02-04T07:03:17;30.80;;;6.05;;
3369;SDS011;42042;51.948;7.628;2023-02-04T07:05:44;28.67;;;5.95;;
3369;SDS011;42042;51.948;7.628;2023-02-04T07:08:13;26.83;;;6.90;;
3369;SDS011;42042;51.948;7.628;2023-02-04T07:10:40;39.35;;;8.02;;
3369;SDS011;42042;51.948;7.628;2023-02-04T07:13:07;41.08;;;7.40;;
3369;SDS011;42042;51.948;7.628;2023-02-04T07:15:34;22.38;;;5.78;;
3369;SDS011;42042;51.948;7.628;2023-02-04T07:18:01;38.60;;;8.25;;
3369;SDS011;42042;51.948;7.628;2023-02-04T07:20:29;35.08;;;6.75;;
3369;SDS011;42042;51.948;7.628;2023-02-04T07:22:56;38.53;;;7.18;;
3369;SDS011;42042;51.948;7.628;2023-02-04T07:25:24;29.05;;;7.93;;
3369;SDS011;42042;51.948;7.628;2023-02-04T07:27:51;39.50;;;8.35;;
3369;SDS011;42042;51.948;7.628;2023-02-04T07:30:20;46.25;;;7.65;;
3369;SDS011;42042;51.948;7.628;2023-02-04T07:32:47;36.42;;;8.48;;
3369;SDS011;42042;51.948;7.628;2023-02-04T07:35:14;24.88;;;6.93;;
3369;SDS011;42042;51.948;7.628;2023-02-04T07:37:42;21.25;;;5.60;;
3369;SDS011;42042;51.948;7.628;2023-02-04T07:40:10;38.25;;;7.30;;
3369;SDS011;42042;51.948;7.628;2023-02-04T07:42:39;33.53;;;7.45;;
3369;SDS011;42042;51.948;7.628;2023-02-04T07:45:06;32.28;;;7.30;;
3369;SDS011;42042;51.948;7.628;2023-02-04T07:47:34;56.75;;;8.38;;
3369;SDS011;42042;51.948;7.628;2023-02-04T07:50:01;35.83;;;8.23;;
3369;SDS011;42042;51.948;7.628;2023-02-04T07:52:28;30.10;;;6.82;;
3369;SDS011;42042;51.948;7.628;2023-02-04T07:54:55;40.80;;;7.57;;
3369;SDS011;42042;51.948;7.628;2023-02-04T07:57:23;26.30;;;5.95;;
3369;SDS011;42042;51.948;7.628;2023-02-04T07:59:52;21.98;;;6.10;;
3369;SDS011;42042;51.948;7.628;2023-02-04T08:02:19;34.83;;;9.13;;
3369;SDS011;42042;51.948;7.628;2023-02-04T08:04:46;20.42;;;6.75;;
3369;SDS011;42042;51.948;7.628;2023-02-04T08:07:13;49.30;;;8.32;;
3369;SDS011;42042;51.948;7.628;2023-02-04T08:09:40;25.65;;;7.10;;
3369;SDS011;42042;51.948;7.628;2023-02-04T08:12:08;43.13;;;7.80;;
3369;SDS011;42042;51.948;7.628;2023-02-04T08:14:35;34.00;;;8.02;;
3369;SDS011;42042;51.948;7.628;2023-02-04T08:17:03;26.40;;;6.43;;
3369;SDS011;42042;51.948;7.628;2023-02-04T08:19:30;29.20;;;8.50;;
3369;SDS011;42042;51.948;7.628;2023-02-04T08:21:58;25.40;;;7.13;;
3369;SDS011;42042;51.948;7.628;2023-02-04T08:24:25;18.48;;;5.78;;
3369;SDS011;42042;51.948;7.628;2023-02-04T08:26:52;31.15;;;6.70;;
3369;SDS011;42042;51.948;7.628;2023-02-04T08:29:19;27.02;;;6.30;;
3369;SDS011;42042;51.948;7.628;2023-02-04T08:31:46;24.13;;;5.43;;
3369;SDS011;42042;51.948;7.628;2023-02-04T08:34:15;22.02;;;4.95;;
3369;SDS011;42042;51.948;7.628;2023-02-04T08:36:42;16.92;;;4.82;;
3369;SDS011;42042;51.948;7.628;2023-02-04T08:39:09;20.13;;;4.40;;
3369;SDS011;42042;51.948;7.628;2023-02-04T08:41:37;21.55;;;6.75;;
3369;SDS011;42042;51.948;7.628;2023-02-04T08:44:04;15.88;;;4.50;;
3369;SDS011;42042;51.948;7.628;2023-02-04T08:46:31;11.02;;;3.70;;
3369;SDS011;42042;51.948;7.628;2023-02-04T08:48:59;15.07;;;4.15;;
3369;SDS011;42042;51.948;7.628;2023-02-04T08:51:27;12.30;;;4.38;;
3369;SDS011;42042;51.948;7.628;2023-02-04T08:53:54;13.43;;;5.00;;
3369;SDS011;42042;51.948;7.628;2023-02-04T08:56:22;10.55;;;3.88;;
3369;SDS011;42042;51.948;7.628;2023-02-04T08:58:49;9.95;;;3.72;;
3369;SDS011;42042;51.948;7.628;2023-02-04T09:01:17;12.00;;;5.22;;
3369;SDS011;42042;51.948;7.628;2023-02-04T09:03:44;12.63;;;4.32;;
3369;SDS011;42042;51.948;7.628;2023-02-04T09:06:11;7.20;;;3.20;;
3369;SDS011;42042;51.948;7.628;2023-02-04T09:08:40;11.68;;;3.95;;
3369;SDS011;42042;51.948;7.628;2023-02-04T09:11:07;4.90;;;2.80;;
3369;SDS011;42042;51.948;7.628;2023-02-04T09:13:36;12.07;;;3.00;;
3369;SDS011;42042;51.948;7.628;2023-02-04T09:16:03;6.35;;;2.90;;
3369;SDS011;42042;51.948;7.628;2023-02-04T09:18:31;9.57;;;2.70;;
3369;SDS011;42042;51.948;7.628;2023-02-04T09:20:58;6.60;;;2.75;;
3369;SDS011;42042;51.948;7.628;2023-02-04T09:23:25;7.03;;;3.13;;
3369;SDS011;42042;51.948;7.628;2023-02-04T09:25:55;9.65;;;3.50;;
3369;SDS011;42042;51.948;7.628;2023-02-04T09:28:22;9.30;;;3.45;;
3369;SDS011;42042;51.948;7.628;2023-02-04T09:30:49;5.30;;;2.95;;
3369;SDS011;42042;51.948;7.628;2023-02-04T09:33:17;7.65;;;2.85;;
3369;SDS011;42042;51.948;7.628;2023-02-04T09:35:44;15.35;;;3.80;;
3369;SDS011;42042;51.948;7.628;2023-02-04T09:38:11;8.30;;;4.15;;
3369;SDS011;42042;51.948;7.628;2023-02-04T09:40:40;8.68;;;4.95;;
3369;SDS011;42042;51.948;7.628;2023-02-04T09:43:10;9.55;;;2.90;;
3369;SDS011;42042;51.948;7.628;2023-02-04T09:45:38;12.80;;;3.20;;
3369;SDS011;42042;51.948;7.628;2023-02-04T09:48:06;6.80;;;3.55;;
3369;SDS011;42042;51.948;7.628;2023-02-04T09:50:33;7.47;;;2.97;;
3369;SDS011;42042;51.948;7.628;2023-02-04T09:53:01;8.57;;;3.40;;
3369;SDS011;42042;51.948;7.628;2023-02-04T09:55:32;12.05;;;3.38;;
3369;SDS011;42042;51.948;7.628;2023-02-04T09:58:00;6.55;;;3.30;;
3369;SDS011;42042;51.948;7.628;2023-02-04T10:00:29;6.30;;;2.90;;
3369;SDS011;42042;51.948;7.628;2023-02-04T10:02:56;14.57;;;3.60;;
3369;SDS011;42042;51.948;7.628;2023-02-04T10:05:26;5.50;;;2.90;;
3369;SDS011;42042;51.948;7.628;2023-02-04T10:07:54;12.98;;;3.40;;
3369;SDS011;42042;51.948;7.628;2023-02-04T10:10:22;8.03;;;3.67;;
3369;SDS011;42042;51.948;7.628;2023-02-04T10:12:51;14.18;;;4.65;;
3369;SDS011;42042;51.948;7.628;2023-02-04T10:15:19;9.73;;;3.30;;
3369;SDS011;42042;51.948;7.628;2023-02-04T10:17:50;10.07;;;2.77;;
3369;SDS011;42042;51.948;7.628;2023-02-04T10:20:18;12.10;;;3.10;;
3369;SDS011;42042;51.948;7.628;2023-02-04T10:22:45;5.78;;;2.90;;
3369;SDS011;42042;51.948;7.628;2023-02-04T10:25:13;9.10;;;4.07;;
3369;SDS011;42042;51.948;7.628;2023-02-04T10:27:47;13.30;;;4.00;;
3369;SDS011;42042;51.948;7.628;2023-02-04T10:30:18;8.57;;;3.95;;
3369;SDS011;42042;51.948;7.628;2023-02-04T10:32:46;12.25;;;3.80;;
3369;SDS011;42042;51.948;7.628;2023-02-04T10:35:15;21.80;;;5.53;;
3369;SDS011;42042;51.948;7.628;2023-02-04T10:37:42;17.63;;;4.22;;
3369;SDS011;42042;51.948;7.628;2023-02-04T10:40:26;8.93;;;3.97;;
3369;SDS011;42042;51.948;7.628;2023-02-04T10:42:53;11.05;;;4.32;;
3369;SDS011;42042;51.948;7.628;2023-02-04T10:45:21;11.93;;;4.35;;
3369;SDS011;42042;51.948;7.628;2023-02-04T10:47:49;10.27;;;5.22;;
3369;SDS011;42042;51.948;7.628;2023-02-04T10:50:18;12.95;;;4.60;;
3369;SDS011;42042;51.948;7.628;2023-02-04T10:52:48;19.35;;;6.22;;
3369;SDS011;42042;51.948;7.628;2023-02-04T10:55:16;8.52;;;4.00;;
3369;SDS011;42042;51.948;7.628;2023-02-04T10:57:44;24.38;;;14.55;;
3369;SDS011;42042;51.948;7.628;2023-02-04T11:00:14;12.05;;;7.72;;
3369;SDS011;42042;51.948;7.628;2023-02-04T11:02:42;15.77;;;6.10;;
3369;SDS011;42042;51.948;7.628;2023-02-04T11:05:11;12.93;;;4.77;;
3369;SDS011;42042;51.948;7.628;2023-02-04T11:07:40;12.90;;;5.30;;
3369;SDS011;42042;51.948;7.628;2023-02-04T11:10:10;9.50;;;5.13;;
3369;SDS011;42042;51.948;7.628;2023-02-04T11:12:39;15.40;;;5.83;;
3369;SDS011;42042;51.948;7.628;2023-02-04T11:17:57;12.57;;;5.13;;
3369;SDS011;42042;51.948;7.628;2023-02-04T11:20:29;17.20;;;6.27;;
3369;SDS011;42042;51.948;7.628;2023-02-04T11:23:12;19.00;;;6.33;;
3369;SDS011;42042;51.948;7.628;2023-02-04T11:25:39;10.67;;;4.90;;
3369;SDS011;42042;51.948;7.628;2023-02-04T11:28:12;11.05;;;4.65;;
3369;SDS011;42042;51.948;7.628;2023-02-04T11:30:39;15.23;;;5.30;;
3369;SDS011;42042;51.948;7.628;2023-02-04T11:33:19;14.20;;;5.10;;
3369;SDS011;42042;51.948;7.628;2023-02-04T11:35:56;12.00;;;4.60;;
3369;SDS011;42042;51.948;7.628;2023-02-04T11:38:27;14.43;;;4.80;;
3369;SDS011;42042;51.948;7.628;2023-02-04T11:40:56;11.73;;;5.07;;
3369;SDS011;42042;51.948;7.628;2023-02-04T11:43:24;15.43;;;5.00;;
3369;SDS011;42042;51.948;7.628;2023-02-04T11:45:59;9.32;;;4.60;;
3369;SDS011;42042;51.948;7.628;2023-02-04T11:48:26;11.80;;;4.60;;
3369;SDS011;42042;51.948;7.628;2023-02-04T11:50:54;14.33;;;4.77;;
3369;SDS011;42042;51.948;7.628;2023-02-04T11:53:22;26.27;;;5.43;;
3369;SDS011;42042;51.948;7.628;2023-02-04T11:55:51;17.33;;;5.47;;
3369;SDS011;42042;51.948;7.628;2023-02-04T11:58:19;11.40;;;5.27;;
3369;SDS011;42042;51.948;7.628;2023-02-04T12:00:50;9.87;;;4.20;;
3369;SDS011;42042;51.948;7.628;2023-02-04T12:03:24;8.93;;;4.13;;
3369;SDS011;42042;51.948;7.628;2023-02-04T12:05:52;14.43;;;4.43;;
3369;SDS011;42042;51.948;7.628;2023-02-04T12:08:29;14.85;;;6.18;;
3369;SDS011;42042;51.948;7.628;2023-02-04T12:11:03;12.95;;;5.28;;
3369;SDS011;42042;51.948;7.628;2023-02-04T12:13:31;14.77;;;5.40;;
3369;SDS011;42042;51.948;7.628;2023-02-04T12:15:59;12.55;;;5.70;;
3369;SDS011;42042;51.948;7.628;2023-02-04T12:18:27;12.80;;;5.00;;
3369;SDS011;42042;51.948;7.628;2023-02-04T12:20:54;9.52;;;4.30;;
3369;SDS011;42042;51.948;7.628;2023-02-04T12:23:22;13.23;;;4.50;;
3369;SDS011;42042;51.948;7.628;2023-02-04T12:25:49;14.17;;;5.73;;
3369;SDS011;42042;51.948;7.628;2023-02-04T12:28:18;19.05;;;4.60;;
3369;SDS011;42042;51.948;7.628;2023-02-04T12:30:45;13.43;;;6.83;;
3369;SDS011;42042;51.948;7.628;2023-02-04T12:33:12;12.07;;;4.63;;
3369;SDS011;42042;51.948;7.628;2023-02-04T12:35:40;15.82;;;8.43;;
3369;SDS011;42042;51.948;7.628;2023-02-04T12:38:07;14.83;;;5.33;;
3369;SDS011;42042;51.948;7.628;2023-02-04T12:40:34;14.00;;;4.88;;
3369;SDS011;42042;51.948;7.628;2023-02-04T12:43:02;16.03;;;3.80;;
3369;SDS011;42042;51.948;7.628;2023-02-04T12:45:31;13.90;;;5.07;;
3369;SDS011;42042;51.948;7.628;2023-02-04T12:47:58;20.13;;;6.80;;
3369;SDS011;42042;51.948;7.628;2023-02-04T12:50:25;8.10;;;3.77;;
3369;SDS011;42042;51.948;7.628;2023-02-04T12:52:53;12.50;;;4.65;;
3369;SDS011;42042;51.948;7.628;2023-02-04T12:55:21;11.20;;;4.85;;
3369;SDS011;42042;51.948;7.628;2023-02-04T12:57:48;13.63;;;4.83;;
3369;SDS011;42042;51.948;7.628;2023-02-04T13:00:16;9.25;;;4.47;;
3369;SDS011;42042;51.948;7.628;2023-02-04T13:02:45;10.75;;;4.85;;
3369;SDS011;42042;51.948;7.628;2023-02-04T13:05:13;9.40;;;4.17;;
3369;SDS011;42042;51.948;7.628;2023-02-04T13:07:40;13.03;;;5.10;;
3369;SDS011;42042;51.948;7.628;2023-02-04T13:10:07;10.70;;;4.32;;
3369;SDS011;42042;51.948;7.628;2023-02-04T13:12:35;9.00;;;4.10;;
3369;SDS011;42042;51.948;7.628;2023-02-04T13:15:02;11.53;;;4.23;;
3369;SDS011;42042;51.948;7.628;2023-02-04T13:17:29;13.07;;;3.73;;
3369;SDS011;42042;51.948;7.628;2023-02-04T13:19:59;14.43;;;5.80;;
3369;SDS011;42042;51.948;7.628;2023-02-04T13:22:26;9.50;;;3.95;;
3369;SDS011;42042;51.948;7.628;2023-02-04T13:24:53;7.85;;;3.53;;
3369;SDS011;42042;51.948;7.628;2023-02-04T13:27:20;14.07;;;4.25;;
3369;SDS011;42042;51.948;7.628;2023-02-04T13:29:48;9.68;;;3.90;;
3369;SDS011;42042;51.948;7.628;2023-02-04T13:32:15;12.73;;;4.30;;
3369;SDS011;42042;51.948;7.628;2023-02-04T13:34:42;11.93;;;4.20;;
3369;SDS011;42042;51.948;7.628;2023-02-04T13:37:11;6.35;;;3.40;;
3369;SDS011;42042;51.948;7.628;2023-02-04T13:39:38;8.23;;;3.63;;
3369;SDS011;42042;51.948;7.628;2023-02-04T13:42:05;14.90;;;7.77;;
3369;SDS011;42042;51.948;7.628;2023-02-04T13:44:32;6.25;;;3.90;;
3369;SDS011;42042;51.948;7.628;2023-02-04T13:46:59;13.87;;;3.40;;
3369;SDS011;42042;51.948;7.628;2023-02-04T13:49:26;15.17;;;4.37;;
3369;SDS011;42042;51.948;7.628;2023-02-04T13:51:54;6.53;;;3.85;;
3369;SDS011;42042;51.948;7.628;2023-02-04T13:54:22;9.50;;;4.03;;
3369;SDS011;42042;51.948;7.628;2023-02-04T13:56:50;12.93;;;6.17;;
3369;SDS011;42042;51.948;7.628;2023-02-04T13:59:17;8.40;;;4.40;;
3369;SDS011;42042;51.948;7.628;2023-02-04T14:01:44;13.02;;;5.78;;
3369;SDS011;42042;51.948;7.628;2023-02-04T14:04:12;8.07;;;3.80;;
3369;SDS011;42042;51.948;7.628;2023-02-04T14:06:39;12.53;;;4.43;;
3369;SDS011;42042;51.948;7.628;2023-02-04T14:09:08;10.10;;;4.70;;
3369;SDS011;42042;51.948;7.628;2023-02-04T14:11:37;14.33;;;5.27;;
3369;SDS011;42042;51.948;7.628;2023-02-04T14:14:04;7.00;;;4.35;;
3369;SDS011;42042;51.948;7.628;2023-02-04T14:16:32;13.97;;;3.23;;
3369;SDS011;42042;51.948;7.628;2023-02-04T14:18:59;11.67;;;4.17;;
3369;SDS011;42042;51.948;7.628;2023-02-04T14:21:27;10.32;;;4.47;;
3369;SDS011;42042;51.948;7.628;2023-02-04T14:23:54;11.40;;;4.20;;
3369;SDS011;42042;51.948;7.628;2023-02-04T14:26:21;10.13;;;4.22;;
3369;SDS011;42042;51.948;7.628;2023-02-04T14:28:50;14.50;;;4.80;;
3369;SDS011;42042;51.948;7.628;2023-02-04T14:31:17;11.40;;;5.40;;
3369;SDS011;42042;51.948;7.628;2023-02-04T14:33:44;10.83;;;4.27;;
3369;SDS011;42042;51.948;7.628;2023-02-04T14:36:11;11.80;;;6.35;;
3369;SDS011;42042;51.948;7.628;2023-02-04T14:38:38;9.83;;;3.73;;
3369;SDS011;42042;51.948;7.628;2023-02-04T14:41:06;15.25;;;4.10;;
3369;SDS011;42042;51.948;7.628;2023-02-04T14:43:33;7.60;;;3.58;;
3369;SDS011;42042;51.948;7.628;2023-02-04T14:46:03;8.80;;;4.38;;
3369;SDS011;42042;51.948;7.628;2023-02-04T14:48:30;12.90;;;4.70;;
3369;SDS011;42042;51.948;7.628;2023-02-04T14:50:57;10.95;;;3.95;;
3369;SDS011;42042;51.948;7.628;2023-02-04T14:53:24;15.25;;;4.22;;
3369;SDS011;42042;51.948;7.628;2023-02-04T14:55:51;10.07;;;4.57;;
3369;SDS011;42042;51.948;7.628;2023-02-04T14:58:19;9.10;;;4.10;;
3369;SDS011;42042;51.948;7.628;2023-02-04T15:00:46;9.30;;;4.13;;
3369;SDS011;42042;51.948;7.628;2023-02-04T15:03:14;3.70;;;3.20;;
3369;SDS011;42042;51.948;7.628;2023-02-04T15:05:41;8.30;;;3.88;;